sensor_id;sensor_type;location;lat;lon;timestamp;P1;durP1;ratioP1;P2;durP2;ratioP2
10162;SDS011;5123;52.556;13.384;2022-12-07T00:01:58;12.07;;;7.70;;
10162;SDS011;5123;52.556;13.384;2022-12-07T00:04:31;11.77;;;8.20;;
10162;SDS011;5123;52.556;13.384;2022-12-07T00:07:04;10.57;;;7.53;;
10162;SDS011;5123;52.556;13.384;2022-12-07T00:09:37;11.13;;;7.07;;
10162;SDS011;5123;52.556;13.384;2022-12-07T00:12:10;11.87;;;7.77;;
10162;SDS011;5123;52.556;13.384;2022-12-07T00:14:44;13.50;;;8.17;;
10162;SDS011;5123;52.556;13.384;2022-12-07T00:17:17;11.03;;;7.87;;
10162;SDS011;5123;52.556;13.384;2022-12-07T00:19:52;9.27;;;6.60;;
10162;SDS011;5123;52.556;13.384;2022-12-07T00:22:25;11.97;;;7.77;;
10162;SDS011;5123;52.556;13.384;2022-12-07T00:24:58;9.97;;;7.50;;
10162;SDS011;5123;52.556;13.384;2022-12-07T00:27:31;10.77;;;7.77;;
10162;SDS011;5123;52.556;13.384;2022-12-07T00:30:06;13.83;;;8.30;;
10162;SDS011;5123;52.556;13.384;2022-12-07T00:32:42;14.57;;;8.53;;
10162;SDS011;5123;52.556;13.384;2022-12-07T00:35:15;11.67;;;8.00;;
10162;SDS011;5123;52.556;13.384;2022-12-07T00:37:47;11.93;;;8.63;;
10162;SDS011;5123;52.556;13.384;2022-12-07T00:40:21;12.00;;;7.67;;
10162;SDS011;5123;52.556;13.384;2022-12-07T00:42:54;11.57;;;8.20;;
10162;SDS011;5123;52.556;13.384;2022-12-07T00:45:29;14.03;;;8.20;;
10162;SDS011;5123;52.556;13.384;2022-12-07T00:48:02;12.47;;;8.60;;
10162;SDS011;5123;52.556;13.384;2022-12-07T00:50:37;10.63;;;7.80;;
10162;SDS011;5123;52.556;13.384;2022-12-07T00:53:10;11.30;;;8.17;;
10162;SDS011;5123;52.556;13.384;2022-12-07T00:55:44;12.27;;;8.53;;
10162;SDS011;5123;52.556;13.384;2022-12-07T00:58:16;12.00;;;8.60;;
10162;SDS011;5123;52.556;13.384;2022-12-07T01:00:51;12.40;;;8.90;;
10162;SDS011;5123;52.556;13.384;2022-12-07T01:03:26;11.00;;;7.87;;
10162;SDS011;5123;52.556;13.384;2022-12-07T01:05:59;12.60;;;9.17;;
10162;SDS011;5123;52.556;13.384;2022-12-07T01:08:32;10.87;;;8.07;;
10162;SDS011;5123;52.556;13.384;2022-12-07T01:11:06;13.77;;;8.53;;
10162;SDS011;5123;52.556;13.384;2022-12-07T01:13:39;12.27;;;8.90;;
10162;SDS011;5123;52.556;13.384;2022-12-07T01:16:14;11.37;;;8.40;;
10162;SDS011;5123;52.556;13.384;2022-12-07T01:18:48;10.80;;;8.20;;
10162;SDS011;5123;52.556;13.384;2022-12-07T01:21:22;10.00;;;7.30;;
10162;SDS011;5123;52.556;13.384;2022-12-07T01:23:56;11.50;;;7.97;;
10162;SDS011;5123;52.556;13.384;2022-12-07T01:26:29;10.10;;;6.63;;
10162;SDS011;5123;52.556;13.384;2022-12-07T01:29:02;8.40;;;7.30;;
10162;SDS011;5123;52.556;13.384;2022-12-07T01:31:36;11.40;;;7.57;;
10162;SDS011;5123;52.556;13.384;2022-12-07T01:34:09;9.87;;;7.20;;
10162;SDS011;5123;52.556;13.384;2022-12-07T01:36:44;10.47;;;7.73;;
10162;SDS011;5123;52.556;13.384;2022-12-07T01:39:16;8.93;;;7.20;;
10162;SDS011;5123;52.556;13.384;2022-12-07T01:41:49;10.27;;;7.57;;
10162;SDS011;5123;52.556;13.384;2022-12-07T01:44:23;9.63;;;7.53;;
10162;SDS011;5123;52.556;13.384;2022-12-07T01:46:58;10.00;;;6.70;;
10162;SDS011;5123;52.556;13.384;2022-12-07T01:49:33;6.50;;;5.77;;
10162;SDS011;5123;52.556;13.384;2022-12-07T01:52:12;10.23;;;7.13;;
10162;SDS011;5123;52.556;13.384;2022-12-07T01:54:46;7.87;;;5.87;;
10162;SDS011;5123;52.556;13.384;2022-12-07T01:57:19;8.13;;;6.33;;
10162;SDS011;5123;52.556;13.384;2022-12-07T01:59:53;7.97;;;6.60;;
10162;SDS011;5123;52.556;13.384;2022-12-07T02:02:30;8.00;;;5.87;;
10162;SDS011;5123;52.556;13.384;2022-12-07T02:05:04;6.73;;;5.80;;
10162;SDS011;5123;52.556;13.384;2022-12-07T02:07:38;8.67;;;6.60;;
10162;SDS011;5123;52.556;13.384;2022-12-07T02:10:12;6.53;;;5.27;;
10162;SDS011;5123;52.556;13.384;2022-12-07T02:12:48;6.70;;;5.57;;
10162;SDS011;5123;52.556;13.384;2022-12-07T02:15:22;9.77;;;5.30;;
10162;SDS011;5123;52.556;13.384;2022-12-07T02:18:00;6.67;;;5.97;;
10162;SDS011;5123;52.556;13.384;2022-12-07T02:20:37;7.17;;;5.60;;
10162;SDS011;5123;52.556;13.384;2022-12-07T02:23:17;6.63;;;5.17;;
10162;SDS011;5123;52.556;13.384;2022-12-07T02:25:57;7.17;;;5.33;;
10162;SDS011;5123;52.556;13.384;2022-12-07T02:28:35;6.97;;;5.80;;
10162;SDS011;5123;52.556;13.384;2022-12-07T02:31:12;7.13;;;5.97;;
10162;SDS011;5123;52.556;13.384;2022-12-07T02:33:49;6.63;;;5.30;;
10162;SDS011;5123;52.556;13.384;2022-12-07T02:36:25;8.53;;;6.97;;
10162;SDS011;5123;52.556;13.384;2022-12-07T02:39:00;6.50;;;5.73;;
10162;SDS011;5123;52.556;13.384;2022-12-07T02:41:35;7.03;;;5.47;;
10162;SDS011;5123;52.556;13.384;2022-12-07T02:44:10;8.77;;;6.13;;
10162;SDS011;5123;52.556;13.384;2022-12-07T02:46:47;6.30;;;5.03;;
10162;SDS011;5123;52.556;13.384;2022-12-07T02:49:23;7.67;;;5.90;;
10162;SDS011;5123;52.556;13.384;2022-12-07T02:51:58;7.90;;;6.40;;
10162;SDS011;5123;52.556;13.384;2022-12-07T02:54:34;7.63;;;6.03;;
10162;SDS011;5123;52.556;13.384;2022-12-07T02:57:12;8.60;;;6.37;;
10162;SDS011;5123;52.556;13.384;2022-12-07T02:59:49;7.57;;;6.53;;
10162;SDS011;5123;52.556;13.384;2022-12-07T03:02:38;7.67;;;5.80;;
10162;SDS011;5123;52.556;13.384;2022-12-07T03:05:20;7.97;;;6.80;;
10162;SDS011;5123;52.556;13.384;2022-12-07T03:07:58;9.57;;;7.43;;
10162;SDS011;5123;52.556;13.384;2022-12-07T03:10:34;8.20;;;6.43;;
10162;SDS011;5123;52.556;13.384;2022-12-07T03:13:14;8.93;;;6.50;;
10162;SDS011;5123;52.556;13.384;2022-12-07T03:15:54;11.60;;;7.20;;
10162;SDS011;5123;52.556;13.384;2022-12-07T03:18:29;9.20;;;7.30;;
10162;SDS011;5123;52.556;13.384;2022-12-07T03:21:04;11.30;;;7.83;;
10162;SDS011;5123;52.556;13.384;2022-12-07T03:23:39;13.57;;;9.27;;
10162;SDS011;5123;52.556;13.384;2022-12-07T03:26:13;11.77;;;7.63;;
10162;SDS011;5123;52.556;13.384;2022-12-07T03:28:47;12.43;;;8.47;;
10162;SDS011;5123;52.556;13.384;2022-12-07T03:31:25;11.13;;;7.97;;
10162;SDS011;5123;52.556;13.384;2022-12-07T03:34:01;14.50;;;9.07;;
10162;SDS011;5123;52.556;13.384;2022-12-07T03:36:35;16.23;;;9.10;;
10162;SDS011;5123;52.556;13.384;2022-12-07T03:39:13;14.57;;;9.37;;
10162;SDS011;5123;52.556;13.384;2022-12-07T03:41:49;14.23;;;9.53;;
10162;SDS011;5123;52.556;13.384;2022-12-07T03:44:22;16.37;;;9.40;;
10162;SDS011;5123;52.556;13.384;2022-12-07T03:46:58;14.93;;;10.23;;
10162;SDS011;5123;52.556;13.384;2022-12-07T03:49:36;15.70;;;10.57;;
10162;SDS011;5123;52.556;13.384;2022-12-07T03:52:16;15.63;;;10.13;;
10162;SDS011;5123;52.556;13.384;2022-12-07T03:54:52;15.03;;;10.60;;
10162;SDS011;5123;52.556;13.384;2022-12-07T03:57:28;14.30;;;9.50;;
10162;SDS011;5123;52.556;13.384;2022-12-07T04:00:03;14.03;;;9.70;;
10162;SDS011;5123;52.556;13.384;2022-12-07T04:02:37;15.13;;;10.57;;
10162;SDS011;5123;52.556;13.384;2022-12-07T04:05:13;14.60;;;10.03;;
10162;SDS011;5123;52.556;13.384;2022-12-07T04:07:46;16.60;;;10.20;;
10162;SDS011;5123;52.556;13.384;2022-12-07T04:10:19;16.90;;;10.10;;
10162;SDS011;5123;52.556;13.384;2022-12-07T04:12:52;14.83;;;10.30;;
10162;SDS011;5123;52.556;13.384;2022-12-07T04:15:25;15.63;;;10.23;;
10162;SDS011;5123;52.556;13.384;2022-12-07T04:17:58;16.80;;;11.80;;
10162;SDS011;5123;52.556;13.384;2022-12-07T04:20:32;19.80;;;11.60;;
10162;SDS011;5123;52.556;13.384;2022-12-07T04:23:05;18.57;;;11.63;;
10162;SDS011;5123;52.556;13.384;2022-12-07T04:25:40;17.90;;;11.50;;
10162;SDS011;5123;52.556;13.384;2022-12-07T04:28:14;19.10;;;11.83;;
10162;SDS011;5123;52.556;13.384;2022-12-07T04:30:49;16.87;;;11.00;;
10162;SDS011;5123;52.556;13.384;2022-12-07T04:33:22;16.47;;;10.87;;
10162;SDS011;5123;52.556;13.384;2022-12-07T04:35:56;19.40;;;11.97;;
10162;SDS011;5123;52.556;13.384;2022-12-07T04:38:29;17.97;;;12.30;;
10162;SDS011;5123;52.556;13.384;2022-12-07T04:41:06;21.03;;;12.87;;
10162;SDS011;5123;52.556;13.384;2022-12-07T04:43:39;20.47;;;12.27;;
10162;SDS011;5123;52.556;13.384;2022-12-07T04:46:12;18.90;;;13.30;;
10162;SDS011;5123;52.556;13.384;2022-12-07T04:48:45;17.60;;;12.13;;
10162;SDS011;5123;52.556;13.384;2022-12-07T04:51:20;18.37;;;11.90;;
10162;SDS011;5123;52.556;13.384;2022-12-07T04:53:54;20.43;;;13.77;;
10162;SDS011;5123;52.556;13.384;2022-12-07T04:56:27;21.20;;;13.30;;
10162;SDS011;5123;52.556;13.384;2022-12-07T04:59:01;19.93;;;12.87;;
10162;SDS011;5123;52.556;13.384;2022-12-07T05:01:37;20.33;;;13.03;;
10162;SDS011;5123;52.556;13.384;2022-12-07T05:04:10;22.73;;;14.03;;
10162;SDS011;5123;52.556;13.384;2022-12-07T05:06:44;22.87;;;14.03;;
10162;SDS011;5123;52.556;13.384;2022-12-07T05:09:17;15.03;;;10.07;;
10162;SDS011;5123;52.556;13.384;2022-12-07T05:11:50;17.83;;;11.47;;
10162;SDS011;5123;52.556;13.384;2022-12-07T05:14:23;21.90;;;15.10;;
10162;SDS011;5123;52.556;13.384;2022-12-07T05:16:56;23.73;;;14.43;;
10162;SDS011;5123;52.556;13.384;2022-12-07T05:19:28;19.70;;;12.80;;
10162;SDS011;5123;52.556;13.384;2022-12-07T05:22:03;20.27;;;13.17;;
10162;SDS011;5123;52.556;13.384;2022-12-07T05:24:36;25.40;;;16.07;;
10162;SDS011;5123;52.556;13.384;2022-12-07T05:27:11;24.60;;;15.23;;
10162;SDS011;5123;52.556;13.384;2022-12-07T05:29:44;19.90;;;13.60;;
10162;SDS011;5123;52.556;13.384;2022-12-07T05:32:17;21.60;;;13.93;;
10162;SDS011;5123;52.556;13.384;2022-12-07T05:34:50;19.33;;;12.73;;
10162;SDS011;5123;52.556;13.384;2022-12-07T05:37:25;25.77;;;16.33;;
10162;SDS011;5123;52.556;13.384;2022-12-07T05:39:57;24.37;;;15.87;;
10162;SDS011;5123;52.556;13.384;2022-12-07T05:42:31;22.60;;;14.87;;
10162;SDS011;5123;52.556;13.384;2022-12-07T05:45:03;25.13;;;15.40;;
10162;SDS011;5123;52.556;13.384;2022-12-07T05:47:36;22.23;;;15.50;;
10162;SDS011;5123;52.556;13.384;2022-12-07T05:50:09;24.70;;;15.43;;
10162;SDS011;5123;52.556;13.384;2022-12-07T05:52:44;25.70;;;14.93;;
10162;SDS011;5123;52.556;13.384;2022-12-07T05:55:16;20.33;;;14.50;;
10162;SDS011;5123;52.556;13.384;2022-12-07T05:57:49;24.40;;;15.97;;
10162;SDS011;5123;52.556;13.384;2022-12-07T06:00:39;22.77;;;15.13;;
10162;SDS011;5123;52.556;13.384;2022-12-07T06:03:11;27.90;;;16.73;;
10162;SDS011;5123;52.556;13.384;2022-12-07T06:05:44;25.07;;;17.07;;
10162;SDS011;5123;52.556;13.384;2022-12-07T06:08:19;24.47;;;15.43;;
10162;SDS011;5123;52.556;13.384;2022-12-07T06:10:51;29.00;;;16.70;;
10162;SDS011;5123;52.556;13.384;2022-12-07T06:13:46;25.13;;;16.73;;
10162;SDS011;5123;52.556;13.384;2022-12-07T06:16:18;27.03;;;15.77;;
10162;SDS011;5123;52.556;13.384;2022-12-07T06:18:51;26.70;;;17.43;;
10162;SDS011;5123;52.556;13.384;2022-12-07T06:21:26;25.67;;;15.50;;
10162;SDS011;5123;52.556;13.384;2022-12-07T06:24:00;28.67;;;16.80;;
10162;SDS011;5123;52.556;13.384;2022-12-07T06:26:33;19.73;;;12.10;;
10162;SDS011;5123;52.556;13.384;2022-12-07T06:29:06;26.20;;;14.80;;
10162;SDS011;5123;52.556;13.384;2022-12-07T06:31:39;23.97;;;15.63;;
10162;SDS011;5123;52.556;13.384;2022-12-07T06:34:13;20.77;;;14.10;;
10162;SDS011;5123;52.556;13.384;2022-12-07T06:36:46;23.80;;;13.63;;
10162;SDS011;5123;52.556;13.384;2022-12-07T06:39:24;22.23;;;14.60;;
10162;SDS011;5123;52.556;13.384;2022-12-07T06:41:57;26.77;;;14.80;;
10162;SDS011;5123;52.556;13.384;2022-12-07T06:44:31;24.93;;;15.27;;
10162;SDS011;5123;52.556;13.384;2022-12-07T06:47:04;25.33;;;15.37;;
10162;SDS011;5123;52.556;13.384;2022-12-07T06:49:59;21.63;;;13.90;;
10162;SDS011;5123;52.556;13.384;2022-12-07T06:52:33;19.57;;;13.63;;
10162;SDS011;5123;52.556;13.384;2022-12-07T06:55:07;20.37;;;13.73;;
10162;SDS011;5123;52.556;13.384;2022-12-07T06:57:42;23.43;;;15.33;;
10162;SDS011;5123;52.556;13.384;2022-12-07T07:00:16;21.70;;;13.43;;
10162;SDS011;5123;52.556;13.384;2022-12-07T07:02:53;21.97;;;12.97;;
10162;SDS011;5123;52.556;13.384;2022-12-07T07:05:26;22.37;;;14.47;;
10162;SDS011;5123;52.556;13.384;2022-12-07T07:07:59;20.50;;;13.80;;
10162;SDS011;5123;52.556;13.384;2022-12-07T07:10:54;23.50;;;15.17;;
10162;SDS011;5123;52.556;13.384;2022-12-07T07:13:27;18.83;;;12.60;;
10162;SDS011;5123;52.556;13.384;2022-12-07T07:16:00;24.13;;;14.07;;
10162;SDS011;5123;52.556;13.384;2022-12-07T07:18:33;25.60;;;14.70;;
10162;SDS011;5123;52.556;13.384;2022-12-07T07:21:06;25.00;;;14.57;;
10162;SDS011;5123;52.556;13.384;2022-12-07T07:23:38;24.37;;;15.43;;
10162;SDS011;5123;52.556;13.384;2022-12-07T07:26:13;21.47;;;11.97;;
10162;SDS011;5123;52.556;13.384;2022-12-07T07:28:53;18.53;;;11.27;;
10162;SDS011;5123;52.556;13.384;2022-12-07T07:31:26;20.03;;;12.03;;
10162;SDS011;5123;52.556;13.384;2022-12-07T07:34:09;22.07;;;14.20;;
10162;SDS011;5123;52.556;13.384;2022-12-07T07:36:41;19.60;;;10.90;;
10162;SDS011;5123;52.556;13.384;2022-12-07T07:39:14;20.80;;;12.87;;
10162;SDS011;5123;52.556;13.384;2022-12-07T07:41:48;18.50;;;12.70;;
10162;SDS011;5123;52.556;13.384;2022-12-07T07:44:21;9.87;;;8.03;;
10162;SDS011;5123;52.556;13.384;2022-12-07T07:46:54;17.73;;;11.73;;
10162;SDS011;5123;52.556;13.384;2022-12-07T07:49:27;17.30;;;11.10;;
10162;SDS011;5123;52.556;13.384;2022-12-07T07:52:00;16.73;;;11.43;;
10162;SDS011;5123;52.556;13.384;2022-12-07T07:54:33;19.20;;;10.90;;
10162;SDS011;5123;52.556;13.384;2022-12-07T07:57:07;21.80;;;12.30;;
10162;SDS011;5123;52.556;13.384;2022-12-07T07:59:40;11.60;;;8.57;;
10162;SDS011;5123;52.556;13.384;2022-12-07T08:02:13;14.70;;;10.20;;
10162;SDS011;5123;52.556;13.384;2022-12-07T08:04:47;16.53;;;10.67;;
10162;SDS011;5123;52.556;13.384;2022-12-07T08:07:20;12.77;;;9.60;;
10162;SDS011;5123;52.556;13.384;2022-12-07T08:09:53;16.83;;;8.80;;
10162;SDS011;5123;52.556;13.384;2022-12-07T08:12:27;8.60;;;5.57;;
10162;SDS011;5123;52.556;13.384;2022-12-07T08:15:00;10.73;;;6.67;;
10162;SDS011;5123;52.556;13.384;2022-12-07T08:17:33;10.43;;;6.83;;
10162;SDS011;5123;52.556;13.384;2022-12-07T08:20:06;9.20;;;6.83;;
10162;SDS011;5123;52.556;13.384;2022-12-07T08:22:39;10.73;;;7.63;;
10162;SDS011;5123;52.556;13.384;2022-12-07T08:25:12;9.27;;;6.20;;
10162;SDS011;5123;52.556;13.384;2022-12-07T08:27:46;8.97;;;6.90;;
10162;SDS011;5123;52.556;13.384;2022-12-07T08:30:19;8.30;;;6.33;;
10162;SDS011;5123;52.556;13.384;2022-12-07T08:32:52;8.60;;;6.30;;
10162;SDS011;5123;52.556;13.384;2022-12-07T08:35:25;7.73;;;4.50;;
10162;SDS011;5123;52.556;13.384;2022-12-07T08:37:58;8.53;;;6.03;;
10162;SDS011;5123;52.556;13.384;2022-12-07T08:40:31;4.97;;;3.80;;
10162;SDS011;5123;52.556;13.384;2022-12-07T08:43:05;7.37;;;5.00;;
10162;SDS011;5123;52.556;13.384;2022-12-07T08:45:39;2.83;;;2.27;;
10162;SDS011;5123;52.556;13.384;2022-12-07T08:48:13;7.37;;;5.30;;
10162;SDS011;5123;52.556;13.384;2022-12-07T08:50:48;4.50;;;3.33;;
10162;SDS011;5123;52.556;13.384;2022-12-07T08:53:21;4.03;;;3.63;;
10162;SDS011;5123;52.556;13.384;2022-12-07T08:55:54;3.93;;;2.17;;
10162;SDS011;5123;52.556;13.384;2022-12-07T08:58:29;4.80;;;2.60;;
10162;SDS011;5123;52.556;13.384;2022-12-07T09:01:02;7.63;;;4.70;;
10162;SDS011;5123;52.556;13.384;2022-12-07T09:03:36;5.53;;;4.00;;
10162;SDS011;5123;52.556;13.384;2022-12-07T09:06:13;6.83;;;3.80;;
10162;SDS011;5123;52.556;13.384;2022-12-07T09:08:46;3.73;;;3.43;;
10162;SDS011;5123;52.556;13.384;2022-12-07T09:11:19;4.97;;;4.03;;
10162;SDS011;5123;52.556;13.384;2022-12-07T09:14:00;4.00;;;3.60;;
10162;SDS011;5123;52.556;13.384;2022-12-07T09:16:33;4.57;;;3.20;;
10162;SDS011;5123;52.556;13.384;2022-12-07T09:19:06;4.87;;;4.00;;
10162;SDS011;5123;52.556;13.384;2022-12-07T09:21:40;2.53;;;2.27;;
10162;SDS011;5123;52.556;13.384;2022-12-07T09:24:13;3.20;;;2.47;;
10162;SDS011;5123;52.556;13.384;2022-12-07T09:26:47;3.27;;;2.97;;
10162;SDS011;5123;52.556;13.384;2022-12-07T09:29:21;3.03;;;2.40;;
10162;SDS011;5123;52.556;13.384;2022-12-07T09:31:54;3.43;;;2.70;;
10162;SDS011;5123;52.556;13.384;2022-12-07T09:34:27;3.00;;;2.80;;
10162;SDS011;5123;52.556;13.384;2022-12-07T09:37:00;2.93;;;2.73;;
10162;SDS011;5123;52.556;13.384;2022-12-07T09:39:37;4.20;;;2.97;;
10162;SDS011;5123;52.556;13.384;2022-12-07T09:42:23;2.20;;;2.00;;
10162;SDS011;5123;52.556;13.384;2022-12-07T09:45:04;1.97;;;1.73;;
10162;SDS011;5123;52.556;13.384;2022-12-07T09:47:37;2.50;;;2.30;;
10162;SDS011;5123;52.556;13.384;2022-12-07T09:50:13;3.17;;;2.43;;
10162;SDS011;5123;52.556;13.384;2022-12-07T09:52:46;2.80;;;2.57;;
10162;SDS011;5123;52.556;13.384;2022-12-07T09:55:25;3.53;;;3.10;;
10162;SDS011;5123;52.556;13.384;2022-12-07T09:58:01;3.50;;;3.20;;
10162;SDS011;5123;52.556;13.384;2022-12-07T10:00:37;3.50;;;3.13;;
10162;SDS011;5123;52.556;13.384;2022-12-07T10:03:11;3.20;;;2.90;;
10162;SDS011;5123;52.556;13.384;2022-12-07T10:05:46;2.60;;;2.40;;
10162;SDS011;5123;52.556;13.384;2022-12-07T10:08:21;3.23;;;2.90;;
10162;SDS011;5123;52.556;13.384;2022-12-07T10:10:59;3.17;;;2.27;;
10162;SDS011;5123;52.556;13.384;2022-12-07T10:13:35;5.03;;;2.30;;
10162;SDS011;5123;52.556;13.384;2022-12-07T10:16:24;4.10;;;2.43;;
10162;SDS011;5123;52.556;13.384;2022-12-07T10:19:03;2.60;;;2.40;;
10162;SDS011;5123;52.556;13.384;2022-12-07T10:22:02;3.10;;;2.67;;
10162;SDS011;5123;52.556;13.384;2022-12-07T10:24:38;5.37;;;3.40;;
10162;SDS011;5123;52.556;13.384;2022-12-07T10:27:19;3.17;;;2.40;;
10162;SDS011;5123;52.556;13.384;2022-12-07T10:29:53;5.37;;;2.60;;
10162;SDS011;5123;52.556;13.384;2022-12-07T10:32:31;3.07;;;2.87;;
10162;SDS011;5123;52.556;13.384;2022-12-07T10:35:19;2.80;;;2.60;;
10162;SDS011;5123;52.556;13.384;2022-12-07T10:37:53;2.40;;;2.20;;
10162;SDS011;5123;52.556;13.384;2022-12-07T10:40:28;2.30;;;2.10;;
10162;SDS011;5123;52.556;13.384;2022-12-07T10:43:05;2.60;;;2.40;;
10162;SDS011;5123;52.556;13.384;2022-12-07T10:45:41;2.30;;;1.73;;
10162;SDS011;5123;52.556;13.384;2022-12-07T10:48:37;3.00;;;2.70;;
10162;SDS011;5123;52.556;13.384;2022-12-07T10:51:13;3.50;;;3.20;;
10162;SDS011;5123;52.556;13.384;2022-12-07T10:53:56;3.80;;;3.43;;
10162;SDS011;5123;52.556;13.384;2022-12-07T10:56:40;3.30;;;2.67;;
10162;SDS011;5123;52.556;13.384;2022-12-07T10:59:34;3.40;;;2.80;;
10162;SDS011;5123;52.556;13.384;2022-12-07T11:02:17;5.27;;;2.60;;
10162;SDS011;5123;52.556;13.384;2022-12-07T11:05:02;3.70;;;3.30;;
10162;SDS011;5123;52.556;13.384;2022-12-07T11:07:39;3.30;;;3.00;;
10162;SDS011;5123;52.556;13.384;2022-12-07T11:10:16;3.17;;;2.87;;
10162;SDS011;5123;52.556;13.384;2022-12-07T11:13:02;4.00;;;3.60;;
10162;SDS011;5123;52.556;13.384;2022-12-07T11:15:49;5.73;;;3.50;;
10162;SDS011;5123;52.556;13.384;2022-12-07T11:18:27;4.17;;;3.77;;
10162;SDS011;5123;52.556;13.384;2022-12-07T11:21:06;3.80;;;2.93;;
10162;SDS011;5123;52.556;13.384;2022-12-07T11:23:44;3.13;;;2.83;;
10162;SDS011;5123;52.556;13.384;2022-12-07T11:26:22;3.47;;;3.10;;
10162;SDS011;5123;52.556;13.384;2022-12-07T11:29:01;4.10;;;3.70;;
10162;SDS011;5123;52.556;13.384;2022-12-07T11:31:41;4.20;;;3.20;;
10162;SDS011;5123;52.556;13.384;2022-12-07T11:34:20;3.63;;;3.33;;
10162;SDS011;5123;52.556;13.384;2022-12-07T11:36:57;3.93;;;3.53;;
10162;SDS011;5123;52.556;13.384;2022-12-07T11:39:33;6.17;;;3.47;;
10162;SDS011;5123;52.556;13.384;2022-12-07T11:42:09;6.57;;;4.17;;
10162;SDS011;5123;52.556;13.384;2022-12-07T11:44:52;4.30;;;3.77;;
10162;SDS011;5123;52.556;13.384;2022-12-07T11:47:28;4.03;;;3.63;;
10162;SDS011;5123;52.556;13.384;2022-12-07T11:50:05;3.73;;;3.43;;
10162;SDS011;5123;52.556;13.384;2022-12-07T11:52:44;4.53;;;4.00;;
10162;SDS011;5123;52.556;13.384;2022-12-07T11:55:21;3.03;;;2.83;;
10162;SDS011;5123;52.556;13.384;2022-12-07T11:57:58;6.70;;;3.83;;
10162;SDS011;5123;52.556;13.384;2022-12-07T12:00:34;5.33;;;4.07;;
10162;SDS011;5123;52.556;13.384;2022-12-07T12:03:09;6.20;;;4.37;;
10162;SDS011;5123;52.556;13.384;2022-12-07T12:05:44;5.70;;;4.20;;
10162;SDS011;5123;52.556;13.384;2022-12-07T12:08:22;4.43;;;3.90;;
10162;SDS011;5123;52.556;13.384;2022-12-07T12:11:23;2.23;;;2.13;;
10162;SDS011;5123;52.556;13.384;2022-12-07T12:14:12;7.40;;;4.57;;
10162;SDS011;5123;52.556;13.384;2022-12-07T12:17:11;3.87;;;2.03;;
10162;SDS011;5123;52.556;13.384;2022-12-07T12:19:56;8.13;;;4.10;;
10162;SDS011;5123;52.556;13.384;2022-12-07T12:22:33;3.70;;;3.33;;
10162;SDS011;5123;52.556;13.384;2022-12-07T12:25:13;4.60;;;4.20;;
10162;SDS011;5123;52.556;13.384;2022-12-07T12:27:53;6.70;;;4.03;;
10162;SDS011;5123;52.556;13.384;2022-12-07T12:30:30;2.73;;;2.30;;
10162;SDS011;5123;52.556;13.384;2022-12-07T12:33:04;4.27;;;3.70;;
10162;SDS011;5123;52.556;13.384;2022-12-07T12:35:39;4.47;;;3.70;;
10162;SDS011;5123;52.556;13.384;2022-12-07T12:38:31;4.97;;;3.40;;
10162;SDS011;5123;52.556;13.384;2022-12-07T12:41:06;7.27;;;3.93;;
10162;SDS011;5123;52.556;13.384;2022-12-07T12:43:59;4.30;;;3.60;;
10162;SDS011;5123;52.556;13.384;2022-12-07T12:55:26;6.07;;;3.53;;
10162;SDS011;5123;52.556;13.384;2022-12-07T13:03:57;6.60;;;3.77;;
10162;SDS011;5123;52.556;13.384;2022-12-07T13:06:34;3.47;;;2.23;;
10162;SDS011;5123;52.556;13.384;2022-12-07T13:09:16;3.93;;;2.43;;
10162;SDS011;5123;52.556;13.384;2022-12-07T13:11:55;4.50;;;3.20;;
10162;SDS011;5123;52.556;13.384;2022-12-07T13:14:43;4.10;;;3.13;;
10162;SDS011;5123;52.556;13.384;2022-12-07T13:20:08;7.77;;;3.53;;
10162;SDS011;5123;52.556;13.384;2022-12-07T13:22:51;5.03;;;3.00;;
10162;SDS011;5123;52.556;13.384;2022-12-07T13:25:36;6.93;;;3.00;;
10162;SDS011;5123;52.556;13.384;2022-12-07T13:28:13;3.80;;;2.83;;
10162;SDS011;5123;52.556;13.384;2022-12-07T13:30:49;4.87;;;2.90;;
10162;SDS011;5123;52.556;13.384;2022-12-07T13:33:27;4.90;;;2.90;;
10162;SDS011;5123;52.556;13.384;2022-12-07T13:36:03;7.47;;;3.87;;
10162;SDS011;5123;52.556;13.384;2022-12-07T13:38:35;6.17;;;3.07;;
10162;SDS011;5123;52.556;13.384;2022-12-07T13:41:13;4.23;;;2.70;;
10162;SDS011;5123;52.556;13.384;2022-12-07T13:43:48;6.60;;;2.60;;
10162;SDS011;5123;52.556;13.384;2022-12-07T13:46:24;3.80;;;2.77;;
10162;SDS011;5123;52.556;13.384;2022-12-07T13:48:57;2.47;;;2.27;;
10162;SDS011;5123;52.556;13.384;2022-12-07T13:51:34;3.30;;;2.57;;
10162;SDS011;5123;52.556;13.384;2022-12-07T13:54:09;5.57;;;2.77;;
10162;SDS011;5123;52.556;13.384;2022-12-07T13:56:43;2.73;;;2.40;;
10162;SDS011;5123;52.556;13.384;2022-12-07T13:59:17;5.13;;;2.47;;
10162;SDS011;5123;52.556;13.384;2022-12-07T14:01:51;9.07;;;2.40;;
10162;SDS011;5123;52.556;13.384;2022-12-07T14:04:29;2.17;;;2.00;;
10162;SDS011;5123;52.556;13.384;2022-12-07T14:10:04;7.10;;;2.90;;
10162;SDS011;5123;52.556;13.384;2022-12-07T14:12:41;6.10;;;3.00;;
10162;SDS011;5123;52.556;13.384;2022-12-07T14:15:15;4.20;;;2.60;;
10162;SDS011;5123;52.556;13.384;2022-12-07T14:17:52;3.37;;;2.50;;
10162;SDS011;5123;52.556;13.384;2022-12-07T14:20:32;4.03;;;2.10;;
10162;SDS011;5123;52.556;13.384;2022-12-07T14:23:06;6.30;;;2.90;;
10162;SDS011;5123;52.556;13.384;2022-12-07T14:26:03;6.90;;;3.45;;
10162;SDS011;5123;52.556;13.384;2022-12-07T14:28:40;4.57;;;2.80;;
10162;SDS011;5123;52.556;13.384;2022-12-07T14:31:14;5.03;;;2.73;;
10162;SDS011;5123;52.556;13.384;2022-12-07T14:34:00;7.70;;;3.10;;
10162;SDS011;5123;52.556;13.384;2022-12-07T14:36:32;3.97;;;3.03;;
10162;SDS011;5123;52.556;13.384;2022-12-07T14:39:07;5.00;;;2.87;;
10162;SDS011;5123;52.556;13.384;2022-12-07T14:41:45;2.87;;;2.57;;
10162;SDS011;5123;52.556;13.384;2022-12-07T14:44:24;7.27;;;3.07;;
10162;SDS011;5123;52.556;13.384;2022-12-07T14:47:07;7.30;;;3.30;;
10162;SDS011;5123;52.556;13.384;2022-12-07T14:50:01;5.43;;;2.60;;
10162;SDS011;5123;52.556;13.384;2022-12-07T14:52:39;4.30;;;2.23;;
10162;SDS011;5123;52.556;13.384;2022-12-07T14:55:32;6.00;;;3.20;;
10162;SDS011;5123;52.556;13.384;2022-12-07T14:58:07;7.60;;;3.27;;
10162;SDS011;5123;52.556;13.384;2022-12-07T15:00:44;4.33;;;2.67;;
10162;SDS011;5123;52.556;13.384;2022-12-07T15:03:18;6.47;;;2.20;;
10162;SDS011;5123;52.556;13.384;2022-12-07T15:05:51;4.27;;;2.53;;
10162;SDS011;5123;52.556;13.384;2022-12-07T15:08:24;4.33;;;2.60;;
10162;SDS011;5123;52.556;13.384;2022-12-07T15:10:59;8.30;;;2.57;;
10162;SDS011;5123;52.556;13.384;2022-12-07T15:13:38;5.50;;;2.93;;
10162;SDS011;5123;52.556;13.384;2022-12-07T15:16:28;5.30;;;2.47;;
10162;SDS011;5123;52.556;13.384;2022-12-07T15:19:22;7.50;;;3.10;;
10162;SDS011;5123;52.556;13.384;2022-12-07T15:22:00;2.73;;;2.40;;
10162;SDS011;5123;52.556;13.384;2022-12-07T15:24:33;5.27;;;1.60;;
10162;SDS011;5123;52.556;13.384;2022-12-07T15:27:06;6.07;;;2.93;;
10162;SDS011;5123;52.556;13.384;2022-12-07T15:29:40;5.73;;;2.67;;
10162;SDS011;5123;52.556;13.384;2022-12-07T15:32:13;7.53;;;2.90;;
10162;SDS011;5123;52.556;13.384;2022-12-07T15:34:46;7.40;;;2.20;;
10162;SDS011;5123;52.556;13.384;2022-12-07T15:37:19;3.27;;;2.03;;
10162;SDS011;5123;52.556;13.384;2022-12-07T15:39:53;4.50;;;2.90;;
10162;SDS011;5123;52.556;13.384;2022-12-07T15:42:26;7.40;;;3.10;;
10162;SDS011;5123;52.556;13.384;2022-12-07T15:45:00;7.13;;;3.40;;
10162;SDS011;5123;52.556;13.384;2022-12-07T15:47:37;4.03;;;2.67;;
10162;SDS011;5123;52.556;13.384;2022-12-07T15:50:30;5.43;;;2.70;;
10162;SDS011;5123;52.556;13.384;2022-12-07T15:53:03;5.63;;;2.23;;